AirNav   Everest Fuels
 
 1193 users online  

FD19 Lawnwood Medical Center Heliport
Fort Pierce, Florida, USA

GOING TO FORT PIERCE?


FAA INFORMATION EFFECTIVE 15 AUGUST 2019

Location

FAA Identifier: FD19
Lat/Long: 27-25-58.4000N 080-20-45.7500W
27-25.973333N 080-20.762500W
27.4328889,-80.3460417
(estimated)
Elevation: 18 ft. / 5 m (estimated)
Variation: 03W (1985)
Time zone: UTC -4 (UTC -5 during Standard Time)
Zip code: 34950

Heliport Operations

Heliport use: Private use, MEDICAL.
Activation date: 10/1984
Control tower: no
ARTCC: MIAMI CENTER
FSS: MIAMI FLIGHT SERVICE STATION
Attendance: CONTINUOUS
Wind indicator: yes
Segmented circle: no

Heliport Communications

WX ASOS at FPR (4 nm N): PHONE 772-489-4281
WX ASOS at VRB (14 nm N): PHONE 772-978-9535
WX AWOS-3 at SUA (16 nm SE): PHONE 772-692-7399

Nearby radio navigation aids

VOR radial/distance  VOR name  Freq  Var
TRVr160/16.6TREASURE VORTAC117.3007W

 
NDB name  Hdg/Dist  Freq  Var  ID
FORT PIERCE163/3.527507WFPR ..-. .--. .-.
UNITED004/31.440505WUTX ..- - -..-

Heliport Services

Runway Information

Helipad H1

Dimensions: 70 x 63 ft. / 21 x 19 m
Surface: asphalt
Latitude: 27-25.973333N
Longitude: 080-20.762500W
Elevation: 18.0 ft.
Traffic pattern: leftleft

Heliport Ownership and Management from official FAA records

Ownership: Privately-owned
Owner: LAWNWOOD MEDICAL CENTER
1700 SOUTH 23RD ST
FORT PIERCE, FL 45950
Phone (772) 332-9718
Manager: JOSE H. VALVOURT JR.
1700 SOUTH 23RD ST
FORT PIERCE, FL 34950
Phone (772) 332-9718

Additional Remarks

A52-H1 PLINE MARKED NORTH SIDE.
FOR CD CTC PALM BEACH APCH AT 561-275-1430

Instrument Procedures

There are no published instrument procedures at FD19.

Some nearby airports with instrument procedures:

KFPR - Treasure Coast International Airport (4 nm N)
KVRB - Vero Beach Regional Airport (14 nm N)
KSUA - Witham Field Airport (16 nm SE)
X26 - Sebastian Municipal Airport (24 nm N)
KOBE - Okeechobee County Airport (29 nm W)
 
Loc | Ops | Rwys | IFR | FBO | Links
Com | Nav | Svcs | Stats | Notes


 
Area around FD19 (Lawnwood Medical Center Heliport)
 
Road maps at: MapQuest Bing Google
 
Aerial photo
No photo
 
Sectional chart

 
Airport distance calculator
Flying to Lawnwood Medical Center Heliport? Find the distance to fly.

From to FD19

Sunrise and sunset
Times for 19-Aug-2019
 Local
(UTC-4)
 Zulu
(UTC)
Morning civil twilight06:3110:31
Sunrise06:5510:55
Sunset19:5523:55
Evening civil twilight20:1900:19

Current date and time
Zulu (UTC)  19-Aug-2019 13:36:17
Local (UTC-4)  19-Aug-2019 09:36:17
 
METAR
KFPR 
4nm NW 
191253Z AUTO 00000KT 10SM CLR 29/25 A3009 RMK AO2 SLP187 T02940250
KVRB 
14nm N 
191253Z 04004KT 10SM SCT030 29/26 A3009 RMK AO2 SLP189 T02890256
KSUA 
16nm SE 
191250Z 00000KT 7SM VCTS SCT010 SCT023 27/23 A3010
TAF
KFPR 
4nm NW 
191125Z 1912/2012 VRB04KT P6SM VCSH SCT025 SCT060 FM191500 10007KT P6SM FEW030 SCT250 FM191800 09011KT P6SM FEW040 SCT250 FM200200 09005KT P6SM VCSH SCT025 SCT035 SCT250
KVRB 
14nm N 
191125Z 1912/2012 VRB05KT P6SM VCSH SCT025 SCT060 FM191500 08007KT P6SM FEW030 SCT250 FM191800 09011KT P6SM FEW040 SCT250 FM200200 08004KT P6SM VCSH SCT025 SCT035 SCT250
KSUA 
16nm SE 
191125Z 1912/2012 VRB03KT P6SM VCSH SCT025 SCT035 SCT060 TEMPO 1912/1913 3SM SHRA BKN025 FM191500 10007KT P6SM FEW030 SCT250 FM191800 09011KT P6SM FEW040 SCT250 FM200200 11005KT P6SM VCSH SCT025 SCT035 SCT250
NOTAMs
Click for the latest NOTAMs
NOTAMs are issued by the DoD/FAA and will open in a separate window not controlled by AirNav.

 

 
 

Would you like to see your business listed on this page?

 If your business provides an interesting product or service to pilots, flight crews, aircraft, or users of the Lawnwood Medical Center Heliport, you should consider listing it here.  To start the listing process, click on the button below
 
Add a business
 

Other Pages about Lawnwood Medical Center Heliport

Update a link
 
Copyright © AirNav, LLC. All rights reserved. Privacy Policy  Contact